Time;durP1;ratioP1;P1;durP2;ratioP2;P2;SDS_P1;SDS_P2;PMS_P1;PMS_P2;Temp;Humidity;BMP_temperature;BMP_pressure;BME280_temperature;BME280_humidity;BME280_pressure;Samples;Min_cycle;Max_cycle;Signal;HPM_P1;HPM_P2
2023/03/09 00:02:46;;;;;;;6.07;4.23;;;;;;;1.15;100.00;94194.00;10373147;28;20238;-66
2023/03/09 00:07:46;;;;;;;4.47;3.37;;;;;;;1.10;100.00;94191.09;10372764;28;20217;-65
2023/03/09 00:12:47;;;;;;;3.67;3.07;;;;;;;1.03;100.00;94178.06;10372814;28;20203;-66
2023/03/09 00:17:47;;;;;;;5.07;4.13;;;;;;;0.67;100.00;94173.16;10372012;28;20232;-66
2023/03/09 00:22:49;;;;;;;5.43;3.60;;;;;;;0.66;100.00;94174.16;10372539;28;20231;-66
2023/03/09 00:27:51;;;;;;;4.07;3.27;;;;;;;0.84;100.00;94167.09;10372490;28;20262;-66
2023/03/09 00:32:52;;;;;;;3.73;3.30;;;;;;;1.07;100.00;94166.44;10372507;28;20189;-62
2023/03/09 00:37:53;;;;;;;3.83;3.40;;;;;;;0.94;100.00;94156.63;10354229;28;20661;-63
2023/03/09 00:42:53;;;;;;;3.60;3.23;;;;;;;0.97;100.00;94140.03;10372068;28;20715;-65
2023/03/09 00:47:53;;;;;;;6.13;3.13;;;;;;;1.02;100.00;94135.19;10371657;28;20316;-64
2023/03/09 00:52:54;;;;;;;4.00;3.27;;;;;;;1.01;100.00;94123.25;10370614;28;20220;-64
2023/03/09 00:57:55;;;;;;;5.47;3.03;;;;;;;1.06;100.00;94116.66;10394517;22;20715;-62
2023/03/09 01:02:55;;;;;;;3.87;3.10;;;;;;;1.10;100.00;94122.28;10426479;28;20611;-61
2023/03/09 01:07:56;;;;;;;4.37;3.30;;;;;;;1.00;100.00;94117.31;10411388;28;20299;-60
2023/03/09 01:12:56;;;;;;;3.43;2.97;;;;;;;1.03;100.00;94114.41;10410243;28;20199;-62
2023/03/09 01:17:57;;;;;;;4.97;3.20;;;;;;;0.84;100.00;94118.13;10426492;28;20381;-61
2023/03/09 01:22:58;;;;;;;4.40;2.97;;;;;;;0.84;100.00;94115.53;10410984;28;20189;-59
2023/03/09 01:27:59;;;;;;;3.77;3.23;;;;;;;0.78;100.00;94118.78;10426181;28;20201;-61
2023/03/09 01:33:00;;;;;;;5.17;3.37;;;;;;;1.05;100.00;94106.50;10421463;28;20188;-60
2023/03/09 01:38:00;;;;;;;4.17;3.23;;;;;;;0.92;100.00;94107.00;10371025;28;20232;-61
2023/03/09 01:43:41;;;;;;;3.97;3.17;;;;;;;0.91;100.00;94102.81;10384240;28;20232;-60
2023/03/09 01:48:41;;;;;;;4.90;4.03;;;;;;;0.89;100.00;94092.66;10365278;28;20217;-60
2023/03/09 01:53:42;;;;;;;5.67;4.33;;;;;;;0.94;100.00;94088.81;10369943;28;20283;-60
2023/03/09 01:58:43;;;;;;;4.90;3.53;;;;;;;0.97;100.00;94099.59;10384063;28;20233;-61
2023/03/09 02:03:51;;;;;;;6.63;5.00;;;;;;;0.77;100.00;94082.84;10385094;28;20217;-60
2023/03/09 02:09:10;;;;;;;6.57;5.23;;;;;;;1.13;100.00;94072.97;10384387;28;20703;-60
2023/03/09 02:14:10;;;;;;;5.03;4.37;;;;;;;1.03;100.00;94062.06;10368184;28;20197;-61
2023/03/09 02:19:19;;;;;;;5.27;3.30;;;;;;;1.05;100.00;94027.38;10367794;28;20213;-61
2023/03/09 02:24:37;;;;;;;4.00;3.20;;;;;;;0.93;100.00;94026.13;10367722;28;20319;-61
2023/03/09 02:29:38;;;;;;;5.13;3.80;;;;;;;0.88;100.00;94010.34;10368966;28;20196;-63
2023/03/09 02:34:39;;;;;;;5.50;4.23;;;;;;;0.89;100.00;94022.28;10384030;28;20659;-60
2023/03/09 02:39:44;;;;;;;5.67;3.67;;;;;;;0.76;100.00;94009.09;10385134;28;20338;-62
2023/03/09 02:44:46;;;;;;;4.13;3.60;;;;;;;0.76;100.00;94003.94;10375045;28;20620;-63
2023/03/09 02:49:47;;;;;;;4.03;3.30;;;;;;;1.02;100.00;93998.56;10376064;28;20225;-61
2023/03/09 02:54:48;;;;;;;4.27;3.37;;;;;;;1.14;100.00;93978.41;10391107;28;20189;-60
2023/03/09 02:59:49;;;;;;;3.33;2.83;;;;;;;1.01;100.00;93982.31;10374105;28;20242;-62
2023/03/09 03:04:50;;;;;;;3.57;2.80;;;;;;;0.89;100.00;93968.94;10390591;28;20189;-63
2023/03/09 03:09:51;;;;;;;4.03;3.23;;;;;;;0.63;100.00;93963.19;10389255;28;20571;-64
2023/03/09 03:14:52;;;;;;;3.73;3.37;;;;;;;0.69;100.00;93965.16;10390331;28;20208;-62
2023/03/09 03:19:53;;;;;;;4.97;3.40;;;;;;;0.90;100.00;93959.44;10373882;28;20306;-61
2023/03/09 03:24:54;;;;;;;5.20;4.27;;;;;;;0.70;100.00;93952.09;10389455;28;20263;-60
2023/03/09 03:29:54;;;;;;;5.77;4.33;;;;;;;0.65;100.00;93951.78;10374311;28;20275;-62
2023/03/09 03:34:55;;;;;;;5.13;4.00;;;;;;;0.71;100.00;93956.25;10389572;28;20216;-62
2023/03/09 03:39:56;;;;;;;5.77;4.10;;;;;;;0.79;100.00;93962.38;10372604;28;20225;-62
2023/03/09 03:44:57;;;;;;;6.97;4.40;;;;;;;0.93;100.00;93960.88;10373791;28;20291;-62
2023/03/09 03:49:57;;;;;;;6.17;4.57;;;;;;;1.00;100.00;93977.31;10388910;28;20236;-62
2023/03/09 03:54:58;;;;;;;5.60;4.17;;;;;;;0.95;100.00;93980.38;10388034;28;20656;-62
2023/03/09 04:00:00;;;;;;;6.20;5.10;;;;;;;0.98;100.00;93987.78;10371927;28;20790;-62
2023/03/09 04:05:01;;;;;;;7.10;5.23;;;;;;;1.03;100.00;93995.03;10414741;28;20204;-61
2023/03/09 04:10:03;;;;;;;7.77;6.13;;;;;;;1.06;100.00;93999.84;10412465;28;20705;-62
2023/03/09 04:15:06;;;;;;;9.23;6.53;;;;;;;1.16;100.00;94007.38;10412496;28;20307;-63
2023/03/09 04:20:08;;;;;;;13.00;7.97;;;;;;;1.09;100.00;94004.69;10411937;28;20216;-63
2023/03/09 04:25:10;;;;;;;14.73;8.57;;;;;;;1.10;100.00;94002.91;10412171;28;20188;-64
2023/03/09 04:30:11;;;;;;;18.50;8.77;;;;;;;1.11;100.00;94001.94;10411661;28;20601;-64
2023/03/09 04:35:11;;;;;;;13.20;9.20;;;;;;;1.15;100.00;94013.50;10412804;28;20189;-63
2023/03/09 04:40:16;;;;;;;18.03;10.73;;;;;;;1.13;100.00;94007.72;10427957;28;20212;-64
2023/03/09 04:45:17;;;;;;;14.27;9.10;;;;;;;1.23;100.00;94027.19;10411095;28;20188;-63
2023/03/09 04:50:19;;;;;;;17.30;10.47;;;;;;;1.04;100.00;94023.22;10411123;28;20276;-64
2023/03/09 04:55:25;;;;;;;21.10;10.93;;;;;;;0.99;100.00;94025.47;10410901;28;20192;-63
2023/03/09 05:00:28;;;;;;;17.37;10.77;;;;;;;1.01;100.00;94020.97;10404257;28;20390;-63
2023/03/09 05:05:29;;;;;;;15.30;9.80;;;;;;;1.08;100.00;94036.56;10373234;28;20192;-63
2023/03/09 05:10:32;;;;;;;13.43;8.37;;;;;;;1.02;100.00;94032.88;10381841;28;20224;-63
2023/03/09 05:15:33;;;;;;;20.33;12.70;;;;;;;0.85;100.00;94031.28;10370785;28;20268;-62
2023/03/09 05:20:34;;;;;;;30.27;20.27;;;;;;;1.11;100.00;94040.59;10369789;28;20240;-63
2023/03/09 05:25:38;;;;;;;16.20;10.60;;;;;;;1.29;100.00;94032.63;10353857;28;20185;-63
2023/03/09 05:30:41;;;;;;;14.20;8.63;;;;;;;1.37;100.00;94036.00;10369848;28;20208;-63
2023/03/09 05:35:43;;;;;;;17.50;9.97;;;;;;;1.31;100.00;94030.72;10368710;28;20227;-63
2023/03/09 05:40:44;;;;;;;21.87;13.00;;;;;;;1.10;100.00;94023.50;10369161;28;20576;-63
2023/03/09 05:45:54;;;;;;;14.17;9.37;;;;;;;1.00;100.00;94026.28;10369372;28;20335;-63
2023/03/09 05:50:59;;;;;;;32.27;18.27;;;;;;;1.16;100.00;94015.91;10369278;28;20212;-63
2023/03/09 05:56:00;;;;;;;17.30;10.30;;;;;;;1.18;100.00;94034.63;10368437;28;20588;-62
2023/03/09 06:01:01;;;;;;;13.53;8.30;;;;;;;1.31;100.00;94035.88;10369028;28;20240;-62
2023/03/09 06:06:05;;;;;;;38.23;20.23;;;;;;;1.39;100.00;94046.97;10369005;28;20185;-61
2023/03/09 06:11:10;;;;;;;74.07;48.03;;;;;;;1.37;100.00;94051.47;10370011;28;20212;-59
2023/03/09 06:16:16;;;;;;;53.37;38.83;;;;;;;1.40;100.00;94053.72;10372761;28;20216;-61
2023/03/09 06:21:17;;;;;;;16.27;11.37;;;;;;;1.68;100.00;94071.38;10377613;28;20202;-62
2023/03/09 06:26:18;;;;;;;16.50;11.67;;;;;;;1.80;100.00;94079.56;10376275;28;20187;-62
2023/03/09 06:31:25;;;;;;;7.87;6.10;;;;;;;2.05;100.00;94092.34;10376100;28;20684;-61
2023/03/09 06:36:28;;;;;;;8.57;6.80;;;;;;;2.12;100.00;94114.75;10375903;28;20228;-62
2023/03/09 06:41:31;;;;;;;7.30;5.07;;;;;;;2.46;100.00;94131.69;10375488;28;21102;-62
2023/03/09 06:46:39;;;;;;;3.90;3.00;;;;;;;3.25;100.00;94153.09;10377903;28;20214;-62
2023/03/09 06:51:40;;;;;;;6.40;3.50;;;;;;;3.73;100.00;94169.97;10379102;28;20687;-62
2023/03/09 06:56:41;;;;;;;4.17;3.73;;;;;;;4.09;100.00;94178.84;10393142;28;20213;-62
2023/03/09 07:01:41;;;;;;;5.17;3.37;;;;;;;4.14;100.00;94193.84;10392058;28;20236;-62
2023/03/09 07:06:42;;;;;;;4.07;3.10;;;;;;;4.21;100.00;94192.97;10424690;28;20184;-60
2023/03/09 07:11:42;;;;;;;4.63;3.80;;;;;;;4.20;100.00;94222.44;10456838;28;20219;-62
2023/03/09 07:16:42;;;;;;;4.23;3.80;;;;;;;4.14;100.00;94227.53;10457362;28;20251;-60
2023/03/09 07:21:43;;;;;;;4.73;4.27;;;;;;;4.17;100.00;94220.19;10456390;28;20215;-62
2023/03/09 07:26:43;;;;;;;5.60;4.43;;;;;;;4.21;100.00;94242.19;10455147;28;20297;-61
2023/03/09 07:31:44;;;;;;;4.83;4.33;;;;;;;4.01;100.00;94272.16;10454932;28;20227;-61
2023/03/09 07:36:44;;;;;;;6.07;5.47;;;;;;;3.89;100.00;94276.97;10455097;28;20224;-63
2023/03/09 07:41:44;;;;;;;6.70;6.10;;;;;;;3.69;100.00;94287.00;10424744;28;20294;-64
2023/03/09 07:46:45;;;;;;;8.53;6.87;;;;;;;3.55;100.00;94296.34;10435891;22;20236;-67
2023/03/09 07:51:45;;;;;;;11.13;7.73;;;;;;;3.45;100.00;94334.59;10415875;28;20235;-67
2023/03/09 07:56:50;;;;;;;10.93;8.53;;;;;;;3.47;100.00;94351.56;10401879;28;20237;-66
2023/03/09 08:01:51;;;;;;;10.10;7.33;;;;;;;3.26;100.00;94380.59;10371283;28;20198;-66
2023/03/09 08:06:51;;;;;;;9.80;7.77;;;;;;;3.03;100.00;94390.91;10371022;28;20210;-67
2023/03/09 08:11:53;;;;;;;10.83;7.80;;;;;;;3.04;100.00;94395.09;10371987;28;20216;-68
2023/03/09 08:16:53;;;;;;;13.57;8.70;;;;;;;2.71;100.00;94405.56;10371217;28;20272;-67
2023/03/09 08:21:53;;;;;;;9.00;6.43;;;;;;;2.79;100.00;94392.59;10371679;28;20189;-65
2023/03/09 08:26:54;;;;;;;7.47;5.77;;;;;;;2.85;100.00;94410.03;10370936;28;20571;-66
2023/03/09 08:31:54;;;;;;;8.40;5.93;;;;;;;2.73;100.00;94432.03;10370874;28;20707;-65
2023/03/09 08:36:56;;;;;;;11.90;7.90;;;;;;;2.57;100.00;94437.22;10368531;28;20756;-67
2023/03/09 08:41:56;;;;;;;10.77;6.87;;;;;;;2.72;100.00;94445.94;10370483;28;20190;-67
2023/03/09 08:46:57;;;;;;;11.03;7.30;;;;;;;2.43;100.00;94465.34;10370346;28;20236;-67
2023/03/09 08:51:57;;;;;;;9.17;7.40;;;;;;;2.62;100.00;94466.78;10370394;28;20203;-66
2023/03/09 08:56:57;;;;;;;9.80;6.13;;;;;;;2.45;100.00;94475.50;10370124;28;20261;-67
2023/03/09 09:01:58;;;;;;;9.47;6.47;;;;;;;2.61;100.00;94495.38;10369820;28;20204;-67
2023/03/09 09:06:59;;;;;;;8.43;5.23;;;;;;;3.06;100.00;94513.91;10366727;28;20209;-66
2023/03/09 09:11:59;;;;;;;7.77;5.47;;;;;;;2.93;100.00;94511.84;10369612;28;20201;-68
2023/03/09 09:17:00;;;;;;;7.83;4.97;;;;;;;3.16;100.00;94525.69;10369257;28;20217;-67
2023/03/09 09:22:03;;;;;;;5.97;4.60;;;;;;;3.14;100.00;94532.81;10369655;28;20192;-67
2023/03/09 09:27:05;;;;;;;7.67;5.80;;;;;;;2.90;100.00;94530.28;10368904;28;20209;-68
2023/03/09 09:32:06;;;;;;;8.70;6.07;;;;;;;3.00;100.00;94543.81;10367896;28;20327;-68
2023/03/09 09:37:06;;;;;;;9.63;6.80;;;;;;;3.51;100.00;94548.75;10367623;28;20221;-68
2023/03/09 09:42:12;;;;;;;8.70;6.43;;;;;;;3.48;100.00;94538.75;10371509;28;20726;-66
2023/03/09 09:47:17;;;;;;;6.50;5.37;;;;;;;3.51;100.00;94546.97;10367941;28;20240;-68
2023/03/09 09:52:27;;;;;;;5.87;4.43;;;;;;;4.25;100.00;94558.78;10373936;28;20197;-67
2023/03/09 09:57:41;;;;;;;5.37;4.03;;;;;;;4.92;100.00;94563.34;10376137;28;20225;-66
2023/03/09 10:02:55;;;;;;;4.93;4.33;;;;;;;5.05;100.00;94559.38;10373645;28;20280;-65
2023/03/09 10:08:00;;;;;;;8.50;5.73;;;;;;;5.43;100.00;94554.94;10374322;28;20229;-66
2023/03/09 10:13:04;;;;;;;3.80;3.40;;;;;;;5.72;100.00;94566.34;10374493;28;20196;-67
2023/03/09 10:18:13;;;;;;;4.10;3.60;;;;;;;5.09;100.00;94569.22;10375768;28;21021;-67
2023/03/09 10:23:19;;;;;;;3.73;3.33;;;;;;;5.20;100.00;94577.56;10374046;28;20185;-67
2023/03/09 10:28:20;;;;;;;4.33;3.63;;;;;;;4.56;100.00;94584.69;10374457;28;20252;-67
2023/03/09 10:33:40;;;;;;;5.23;3.97;;;;;;;5.14;100.00;94592.03;10369709;28;20726;-67
2023/03/09 10:38:56;;;;;;;7.63;5.03;;;;;;;4.35;100.00;94610.41;10360712;28;20723;-65
2023/03/09 10:43:58;;;;;;;4.40;3.97;;;;;;;4.69;100.00;94615.25;10369595;28;20193;-67
2023/03/09 10:49:13;;;;;;;4.67;4.13;;;;;;;4.32;100.00;94626.28;10373030;28;20615;-65
2023/03/09 10:54:22;;;;;;;4.73;4.23;;;;;;;3.76;100.00;94640.09;10370177;28;20243;-66
2023/03/09 10:59:27;;;;;;;8.47;5.30;;;;;;;4.18;100.00;94653.72;10373306;28;20225;-66
2023/03/09 11:04:32;;;;;;;4.43;4.03;;;;;;;4.24;100.00;94666.84;10372409;28;20221;-65
2023/03/09 11:09:33;;;;;;;5.80;4.20;;;;;;;4.36;100.00;94658.69;10372668;28;20209;-66
2023/03/09 11:14:42;;;;;;;5.03;4.60;;;;;;;4.45;100.00;94675.81;10369344;28;20625;-65
2023/03/09 11:19:42;;;;;;;4.50;4.10;;;;;;;4.57;100.00;94674.47;10367626;28;20221;-65
2023/03/09 11:24:44;;;;;;;4.97;4.43;;;;;;;4.32;100.00;94680.72;10373664;28;20906;-64
2023/03/09 11:29:53;;;;;;;4.17;3.77;;;;;;;4.57;100.00;94677.06;10370919;28;20225;-64
2023/03/09 11:34:54;;;;;;;3.70;3.40;;;;;;;4.33;100.00;94667.59;10373880;28;20190;-67
2023/03/09 11:40:15;;;;;;;4.33;3.93;;;;;;;4.94;100.00;94698.09;10372486;28;20217;-63
2023/03/09 11:45:23;;;;;;;3.33;3.03;;;;;;;4.89;100.00;94701.22;10371988;28;20203;-66
2023/03/09 11:50:27;;;;;;;4.23;3.47;;;;;;;4.45;100.00;94692.16;10371394;28;20646;-65
2023/03/09 11:55:55;;;;;;;3.07;2.77;;;;;;;4.69;100.00;94700.84;10371447;28;20275;-64
2023/03/09 12:01:23;;;;;;;4.50;3.80;;;;;;;5.62;100.00;94696.47;10369871;28;20201;-64
2023/03/09 12:06:51;;;;;;;3.00;2.77;;;;;;;5.11;100.00;94693.63;10367888;28;20209;-65
2023/03/09 12:11:59;;;;;;;3.50;3.20;;;;;;;5.35;100.00;94684.84;10370406;28;20205;-65
2023/03/09 12:17:03;;;;;;;2.97;2.73;;;;;;;5.40;100.00;94677.34;10369542;28;20228;-64
2023/03/09 12:22:06;;;;;;;3.90;3.57;;;;;;;5.09;100.00;94686.00;10370246;28;20572;-65
2023/03/09 12:27:21;;;;;;;5.90;3.77;;;;;;;5.68;100.00;94687.97;10373622;28;20201;-63
2023/03/09 12:32:21;;;;;;;4.10;3.80;;;;;;;5.29;100.00;94683.75;10371235;28;20193;-66
2023/03/09 12:37:30;;;;;;;4.60;4.20;;;;;;;5.62;100.00;94693.06;10371771;28;20228;-65
2023/03/09 12:42:37;;;;;;;4.37;3.97;;;;;;;5.07;100.00;94692.34;10371533;28;20543;-65
2023/03/09 12:47:42;;;;;;;6.00;4.00;;;;;;;5.42;100.00;94695.34;10375109;28;20665;-64
2023/03/09 12:52:45;;;;;;;4.93;4.33;;;;;;;5.32;100.00;94696.38;10371946;28;20198;-65
2023/03/09 12:57:47;;;;;;;4.70;4.30;;;;;;;5.58;100.00;94700.41;10374245;28;20229;-65
2023/03/09 13:02:54;;;;;;;5.20;4.70;;;;;;;5.10;100.00;94704.97;10373525;28;20193;-65
2023/03/09 13:08:06;;;;;;;4.57;4.13;;;;;;;4.99;100.00;94712.19;10373944;28;20205;-64
2023/03/09 13:13:33;;;;;;;5.73;5.13;;;;;;;5.09;100.00;94724.94;10360829;28;20201;-65
2023/03/09 13:18:33;;;;;;;4.90;4.40;;;;;;;5.04;100.00;94740.22;10364619;28;20229;-65
2023/03/09 13:23:35;;;;;;;5.00;4.30;;;;;;;4.91;100.00;94747.75;10363206;28;20263;-65
2023/03/09 13:28:39;;;;;;;4.53;4.10;;;;;;;4.90;100.00;94744.34;10364074;28;20228;-64
2023/03/09 13:33:41;;;;;;;15.83;10.53;;;;;;;4.93;100.00;94746.59;10362898;28;20550;-64
2023/03/09 13:38:49;;;;;;;9.73;7.47;;;;;;;4.85;100.00;94754.41;10361602;28;20248;-65
2023/03/09 13:43:51;;;;;;;5.93;5.03;;;;;;;5.12;100.00;94741.94;10361124;28;20193;-64
2023/03/09 13:48:54;;;;;;;7.57;5.10;;;;;;;5.52;100.00;94760.84;10346240;28;20718;-62
2023/03/09 13:53:54;;;;;;;5.63;5.07;;;;;;;5.05;100.00;94761.78;10413859;23;20256;-63
2023/03/09 13:58:55;;;;;;;8.23;7.17;;;;;;;4.82;100.00;94775.50;10399487;28;20307;-64
2023/03/09 14:03:57;;;;;;;5.20;4.70;;;;;;;5.15;100.00;94770.97;10364942;28;20337;-64
2023/03/09 14:09:04;;;;;;;6.17;5.63;;;;;;;5.15;100.00;94777.94;10360848;28;20280;-64
2023/03/09 14:14:07;;;;;;;5.00;4.50;;;;;;;5.30;100.00;94778.84;10365505;28;20268;-64
2023/03/09 14:19:19;;;;;;;4.20;3.80;;;;;;;5.40;100.00;94767.41;10345268;28;20213;-64
2023/03/09 14:24:32;;;;;;;7.27;4.77;;;;;;;5.38;100.00;94772.78;10343513;28;20237;-64
2023/03/09 14:29:32;;;;;;;4.57;4.17;;;;;;;5.47;100.00;94766.53;10346082;28;20192;-62
2023/03/09 14:34:33;;;;;;;4.83;4.30;;;;;;;5.36;100.00;94770.34;10348135;28;20209;-63
2023/03/09 14:39:37;;;;;;;6.37;5.37;;;;;;;5.44;100.00;94760.91;10375609;28;20233;-63
2023/03/09 14:44:46;;;;;;;8.97;7.07;;;;;;;5.46;100.00;94764.91;10353843;28;20303;-63
2023/03/09 14:49:48;;;;;;;99.53;45.07;;;;;;;5.28;100.00;94770.41;10346912;28;20261;-62
2023/03/09 14:54:49;;;;;;;74.43;37.80;;;;;;;5.17;100.00;94769.00;10338696;28;20300;-62
2023/03/09 14:59:49;;;;;;;16.20;11.33;;;;;;;5.28;100.00;94780.81;10342216;28;20235;-63
2023/03/09 15:04:50;;;;;;;5.37;4.57;;;;;;;5.30;100.00;94778.84;10374998;28;20221;-63
2023/03/09 15:09:50;;;;;;;5.00;4.50;;;;;;;4.96;100.00;94780.00;10373274;28;20771;-63
2023/03/09 15:14:50;;;;;;;4.60;4.20;;;;;;;5.21;100.00;94779.03;10373538;28;20185;-64
2023/03/09 15:19:51;;;;;;;4.20;3.80;;;;;;;5.02;100.00;94781.06;10373222;28;20298;-63
2023/03/09 15:24:51;;;;;;;3.83;3.43;;;;;;;5.21;100.00;94782.47;10373473;28;20288;-62
2023/03/09 15:29:51;;;;;;;13.97;8.70;;;;;;;5.21;100.00;94800.63;10372782;28;20213;-63
2023/03/09 15:34:52;;;;;;;5.07;4.10;;;;;;;4.85;100.00;94805.50;10351428;28;20196;-63
2023/03/09 15:39:52;;;;;;;6.07;4.70;;;;;;;5.13;100.00;94824.84;10330995;28;20321;-62
2023/03/09 15:44:52;;;;;;;5.97;4.57;;;;;;;5.23;100.00;94814.22;10355653;28;20202;-63
2023/03/09 15:49:53;;;;;;;11.10;8.57;;;;;;;5.01;100.00;94815.81;10371538;28;20323;-63
2023/03/09 15:54:53;;;;;;;7.27;5.53;;;;;;;4.98;100.00;94811.75;10372222;28;20198;-63
2023/03/09 15:59:57;;;;;;;3.50;3.20;;;;;;;5.10;100.00;94819.16;10371363;28;20220;-62
2023/03/09 16:04:57;;;;;;;10.80;5.83;;;;;;;5.05;100.00;94832.63;10369617;28;20193;-63
2023/03/09 16:09:58;;;;;;;5.13;3.73;;;;;;;5.13;100.00;94824.84;10369469;28;20212;-63
2023/03/09 16:14:58;;;;;;;5.73;4.50;;;;;;;5.20;100.00;94831.94;10371607;28;20268;-63
2023/03/09 16:19:59;;;;;;;3.90;3.33;;;;;;;5.04;100.00;94835.41;10370703;28;20232;-62
2023/03/09 16:24:59;;;;;;;4.63;3.60;;;;;;;5.05;100.00;94832.63;10370922;28;20193;-63
2023/03/09 16:29:59;;;;;;;4.60;3.90;;;;;;;5.09;100.00;94835.72;10370539;28;20213;-62
2023/03/09 16:35:09;;;;;;;9.00;5.70;;;;;;;5.12;100.00;94832.78;10370589;28;20193;-62
2023/03/09 16:40:11;;;;;;;3.40;3.10;;;;;;;5.10;100.00;94827.78;10369410;28;20296;-62
2023/03/09 16:45:13;;;;;;;9.53;6.50;;;;;;;5.16;100.00;94824.50;10366241;28;20255;-62
2023/03/09 16:50:18;;;;;;;3.40;3.10;;;;;;;5.03;100.00;94833.81;10345380;28;20244;-62
2023/03/09 16:55:21;;;;;;;5.77;4.73;;;;;;;5.18;100.00;94830.31;10345492;28;20198;-62
2023/03/09 17:00:22;;;;;;;9.70;7.30;;;;;;;5.21;100.00;94839.56;10345770;28;20233;-61
2023/03/09 17:05:22;;;;;;;8.03;4.73;;;;;;;5.05;100.00;94827.44;10333621;28;20536;-60
2023/03/09 17:10:24;;;;;;;4.30;3.80;;;;;;;5.03;100.00;94836.41;10354133;28;20291;-61
2023/03/09 17:15:24;;;;;;;6.03;3.93;;;;;;;4.99;100.00;94838.50;10370457;28;20243;-63
2023/03/09 17:20:24;;;;;;;4.97;4.17;;;;;;;4.95;100.00;94839.84;10368706;28;20243;-63
2023/03/09 17:25:25;;;;;;;5.30;4.63;;;;;;;5.02;100.00;94837.38;10369613;28;20185;-63
2023/03/09 17:30:27;;;;;;;8.47;5.70;;;;;;;4.89;100.00;94851.69;10368306;28;20209;-63
2023/03/09 17:35:27;;;;;;;6.90;6.20;;;;;;;4.88;100.00;94860.44;10356144;28;20194;-63
2023/03/09 17:40:27;;;;;;;8.40;6.97;;;;;;;4.81;100.00;94862.09;10357795;28;20324;-62
2023/03/09 17:45:29;;;;;;;10.03;7.00;;;;;;;4.88;100.00;94878.59;10368887;28;20255;-62
2023/03/09 17:50:30;;;;;;;7.00;5.90;;;;;;;4.76;100.00;94872.97;10367941;28;20229;-63
2023/03/09 17:55:30;;;;;;;10.77;8.53;;;;;;;4.62;100.00;94887.44;10369627;28;20193;-62
2023/03/09 18:00:32;;;;;;;9.40;7.77;;;;;;;4.49;100.00;94884.53;10369191;28;20306;-62
2023/03/09 18:05:36;;;;;;;12.17;9.27;;;;;;;4.32;100.00;94873.38;10369125;28;20737;-62
2023/03/09 18:10:40;;;;;;;11.47;9.23;;;;;;;4.21;100.00;94871.91;10368043;28;20229;-61
2023/03/09 18:15:41;;;;;;;10.53;7.07;;;;;;;4.27;100.00;94881.63;10365987;28;20216;-62
2023/03/09 18:20:41;;;;;;;9.40;7.80;;;;;;;4.09;100.00;94873.22;10374874;28;20315;-61
2023/03/09 18:25:42;;;;;;;7.33;5.60;;;;;;;4.21;100.00;94871.09;10340772;28;20368;-61
2023/03/09 18:30:42;;;;;;;6.70;4.67;;;;;;;4.34;100.00;94873.22;10335093;28;20651;-61
2023/03/09 18:35:43;;;;;;;6.33;4.93;;;;;;;4.36;100.00;94863.47;10350793;28;20261;-61
2023/03/09 18:40:44;;;;;;;7.17;5.93;;;;;;;4.27;100.00;94860.91;10374973;28;20596;-61
2023/03/09 18:45:44;;;;;;;12.17;8.63;;;;;;;4.37;100.00;94868.50;10375467;28;20279;-61
2023/03/09 18:50:45;;;;;;;63.07;27.93;;;;;;;4.45;100.00;94878.03;10346716;28;20241;-61
2023/03/09 18:55:58;;;;;;;14.47;9.33;;;;;;;4.46;100.00;94857.13;10333791;28;20193;-61
2023/03/09 19:00:59;;;;;;;7.30;6.07;;;;;;;4.56;100.00;94854.34;10334059;28;20333;-61
2023/03/09 19:06:05;;;;;;;7.03;5.43;;;;;;;4.49;100.00;94848.22;10334584;28;20351;-62
2023/03/09 19:11:10;;;;;;;20.90;15.83;;;;;;;4.62;100.00;94845.09;10340322;28;20229;-62
2023/03/09 19:16:10;;;;;;;18.37;12.10;;;;;;;4.82;100.00;94841.19;10333305;28;20657;-61
2023/03/09 19:21:13;;;;;;;8.77;6.43;;;;;;;4.79;100.00;94836.31;10333390;28;20213;-59
2023/03/09 19:26:14;;;;;;;5.60;3.63;;;;;;;4.97;100.00;94830.09;10342213;28;20276;-58
2023/03/09 19:31:27;;;;;;;11.40;4.17;;;;;;;5.20;100.00;94817.16;10373709;28;20209;-60
2023/03/09 19:36:29;;;;;;;5.97;3.47;;;;;;;5.64;100.00;94806.19;10373945;28;20213;-59
2023/03/09 19:41:31;;;;;;;8.10;4.23;;;;;;;5.54;100.00;94780.47;10373612;28;20221;-61
2023/03/09 19:46:32;;;;;;;8.37;2.93;;;;;;;5.69;100.00;94762.31;10373593;28;20239;-61
2023/03/09 19:51:34;;;;;;;7.00;2.37;;;;;;;5.82;100.00;94746.16;10417928;22;20236;-66
2023/03/09 19:56:38;;;;;;;8.27;3.03;;;;;;;5.81;100.00;94728.94;10436120;28;20216;-65
2023/03/09 20:01:42;;;;;;;9.83;5.40;;;;;;;5.70;100.00;94719.78;10401272;28;20364;-65
2023/03/09 20:06:46;;;;;;;7.07;3.07;;;;;;;5.85;100.00;94696.44;10386453;28;20640;-65
2023/03/09 20:11:47;;;;;;;6.60;2.63;;;;;;;5.87;100.00;94701.44;10387029;28;20213;-65
2023/03/09 20:16:47;;;;;;;9.13;3.20;;;;;;;6.04;100.00;94699.53;10386616;28;20213;-66
2023/03/09 20:21:48;;;;;;;5.37;2.07;;;;;;;6.01;100.00;94687.69;10374510;28;20217;-65
2023/03/09 20:26:50;;;;;;;5.47;1.80;;;;;;;5.94;100.00;94686.78;10368615;28;20209;-65
2023/03/09 20:31:53;;;;;;;3.87;1.80;;;;;;;6.00;100.00;94686.09;10368553;28;20220;-66
2023/03/09 20:36:53;;;;;;;5.13;2.37;;;;;;;5.98;100.00;94708.84;10367398;28;20228;-65
2023/03/09 20:41:53;;;;;;;7.20;2.07;;;;;;;6.03;100.00;94703.09;10367822;28;20213;-66
2023/03/09 20:46:54;;;;;;;2.03;1.60;;;;;;;5.94;100.00;94701.53;10367869;28;20197;-67
2023/03/09 20:51:54;;;;;;;7.30;1.93;;;;;;;5.91;100.00;94702.69;10372454;28;20387;-66
2023/03/09 20:56:55;;;;;;;7.40;1.97;;;;;;;5.90;100.00;94707.09;10384515;28;20594;-65
2023/03/09 21:01:55;;;;;;;3.77;1.50;;;;;;;5.94;100.00;94696.34;10385307;28;20564;-65
2023/03/09 21:06:56;;;;;;;4.83;2.03;;;;;;;5.81;100.00;94694.38;10384827;28;20188;-63
2023/03/09 21:11:57;;;;;;;5.30;2.20;;;;;;;5.76;100.00;94694.06;10384729;28;20215;-64
2023/03/09 21:16:57;;;;;;;5.23;1.47;;;;;;;5.75;100.00;94692.47;10384463;28;20572;-63
2023/03/09 21:21:57;;;;;;;10.40;2.50;;;;;;;5.72;100.00;94689.22;10384494;28;20209;-64
2023/03/09 21:26:58;;;;;;;7.00;2.20;;;;;;;5.61;100.00;94683.66;10381696;28;20192;-63
2023/03/09 21:31:58;;;;;;;9.07;2.17;;;;;;;5.69;100.00;94668.78;10370142;28;20303;-65
2023/03/09 21:36:58;;;;;;;9.10;2.03;;;;;;;5.65;100.00;94669.31;10367020;28;20221;-64
2023/03/09 21:41:59;;;;;;;14.20;2.80;;;;;;;5.59;100.00;94665.66;10366256;28;20240;-65
2023/03/09 21:47:00;;;;;;;6.73;2.20;;;;;;;5.52;100.00;94664.75;10366493;28;20193;-65
2023/03/09 21:52:00;;;;;;;7.90;1.97;;;;;;;5.47;100.00;94667.88;10366373;28;20247;-64
2023/03/09 21:57:03;;;;;;;7.13;1.87;;;;;;;5.61;100.00;94660.28;10366045;28;20217;-65
2023/03/09 22:02:03;;;;;;;7.20;1.70;;;;;;;5.67;100.00;94650.00;10366370;28;20217;-64
2023/03/09 22:07:04;;;;;;;8.60;2.10;;;;;;;5.80;100.00;94641.56;10366011;28;20193;-65
2023/03/09 22:12:05;;;;;;;3.60;1.37;;;;;;;5.88;100.00;94636.31;10366276;28;20232;-64
2023/03/09 22:17:05;;;;;;;7.07;2.57;;;;;;;5.89;100.00;94629.31;10366458;28;20228;-65
2023/03/09 22:22:06;;;;;;;8.67;2.13;;;;;;;5.87;100.00;94618.31;10364309;28;20719;-65
2023/03/09 22:27:06;;;;;;;9.73;2.30;;;;;;;5.87;100.00;94618.31;10382752;28;20200;-63
2023/03/09 22:32:08;;;;;;;19.87;3.00;;;;;;;6.00;100.00;94605.53;10382133;28;20292;-63
2023/03/09 22:37:08;;;;;;;11.27;2.50;;;;;;;6.25;100.00;94593.03;10365833;28;20221;-66
2023/03/09 22:42:09;;;;;;;10.37;2.50;;;;;;;6.34;100.00;94578.13;10365608;28;20336;-63
2023/03/09 22:47:09;;;;;;;7.07;1.80;;;;;;;6.48;100.00;94578.25;10365984;28;20225;-65
2023/03/09 22:52:09;;;;;;;10.23;2.47;;;;;;;6.54;100.00;94577.50;10365669;28;20260;-64
2023/03/09 22:57:10;;;;;;;18.97;2.23;;;;;;;6.37;100.00;94564.75;10367659;28;20696;-64
2023/03/09 23:02:10;;;;;;;10.00;2.47;;;;;;;6.30;100.00;94556.06;10366108;28;20796;-63
2023/03/09 23:07:11;;;;;;;13.20;2.40;;;;;;;6.20;100.00;94547.75;10333875;28;20205;-63
2023/03/09 23:12:11;;;;;;;13.50;2.17;;;;;;;6.00;100.00;94550.13;10331798;28;20296;-63
2023/03/09 23:17:11;;;;;;;11.43;3.20;;;;;;;6.06;100.00;94539.00;10331420;28;20218;-64
2023/03/09 23:22:12;;;;;;;12.07;2.20;;;;;;;5.95;100.00;94534.25;10330539;28;20210;-65